sensor_id;sensor_type;location;lat;lon;timestamp;P1;durP1;ratioP1;P2;durP2;ratioP2
25946;SDS011;13745;51.470;9.894;2023-04-10T00:00:36;34.47;;;19.88;;
25946;SDS011;13745;51.470;9.894;2023-04-10T00:03:24;31.52;;;17.63;;
25946;SDS011;13745;51.470;9.894;2023-04-10T00:06:10;35.92;;;19.98;;
25946;SDS011;13745;51.470;9.894;2023-04-10T00:08:55;34.90;;;19.23;;
25946;SDS011;13745;51.470;9.894;2023-04-10T00:11:40;39.78;;;20.23;;
25946;SDS011;13745;51.470;9.894;2023-04-10T00:14:26;38.63;;;20.30;;
25946;SDS011;13745;51.470;9.894;2023-04-10T00:17:11;33.47;;;18.92;;
25946;SDS011;13745;51.470;9.894;2023-04-10T00:19:56;35.83;;;20.02;;
25946;SDS011;13745;51.470;9.894;2023-04-10T00:22:43;39.90;;;20.88;;
25946;SDS011;13745;51.470;9.894;2023-04-10T00:25:28;38.95;;;19.90;;
25946;SDS011;13745;51.470;9.894;2023-04-10T00:28:13;39.42;;;19.75;;
25946;SDS011;13745;51.470;9.894;2023-04-10T00:31:00;40.75;;;21.42;;
25946;SDS011;13745;51.470;9.894;2023-04-10T00:33:46;42.47;;;20.05;;
25946;SDS011;13745;51.470;9.894;2023-04-10T00:36:31;41.60;;;21.30;;
25946;SDS011;13745;51.470;9.894;2023-04-10T00:39:16;38.63;;;20.90;;
25946;SDS011;13745;51.470;9.894;2023-04-10T00:42:01;43.67;;;21.65;;
25946;SDS011;13745;51.470;9.894;2023-04-10T00:44:46;41.33;;;19.75;;
25946;SDS011;13745;51.470;9.894;2023-04-10T00:47:33;35.67;;;18.65;;
25946;SDS011;13745;51.470;9.894;2023-04-10T00:50:20;34.35;;;20.15;;
25946;SDS011;13745;51.470;9.894;2023-04-10T00:53:05;36.33;;;19.98;;
25946;SDS011;13745;51.470;9.894;2023-04-10T00:55:50;36.95;;;19.95;;
25946;SDS011;13745;51.470;9.894;2023-04-10T00:58:36;33.72;;;18.00;;
25946;SDS011;13745;51.470;9.894;2023-04-10T01:01:22;32.90;;;18.08;;
25946;SDS011;13745;51.470;9.894;2023-04-10T01:04:08;32.42;;;18.35;;
25946;SDS011;13745;51.470;9.894;2023-04-10T01:06:57;33.78;;;19.05;;
25946;SDS011;13745;51.470;9.894;2023-04-10T01:09:46;33.17;;;17.60;;
25946;SDS011;13745;51.470;9.894;2023-04-10T01:12:39;35.10;;;18.52;;
25946;SDS011;13745;51.470;9.894;2023-04-10T01:15:36;35.10;;;18.30;;
25946;SDS011;13745;51.470;9.894;2023-04-10T01:18:29;30.38;;;17.65;;
25946;SDS011;13745;51.470;9.894;2023-04-10T01:21:19;33.30;;;18.58;;
25946;SDS011;13745;51.470;9.894;2023-04-10T01:24:08;35.72;;;18.95;;
25946;SDS011;13745;51.470;9.894;2023-04-10T01:27:09;33.40;;;18.70;;
25946;SDS011;13745;51.470;9.894;2023-04-10T01:30:00;39.67;;;19.13;;
25946;SDS011;13745;51.470;9.894;2023-04-10T01:32:48;39.05;;;19.85;;
25946;SDS011;13745;51.470;9.894;2023-04-10T01:35:39;36.60;;;19.95;;
25946;SDS011;13745;51.470;9.894;2023-04-10T01:38:26;38.95;;;21.05;;
25946;SDS011;13745;51.470;9.894;2023-04-10T01:41:13;41.83;;;22.10;;
25946;SDS011;13745;51.470;9.894;2023-04-10T01:43:59;44.65;;;21.83;;
25946;SDS011;13745;51.470;9.894;2023-04-10T01:46:49;42.45;;;22.50;;
25946;SDS011;13745;51.470;9.894;2023-04-10T01:49:35;45.00;;;22.67;;
25946;SDS011;13745;51.470;9.894;2023-04-10T01:52:26;42.10;;;22.15;;
25946;SDS011;13745;51.470;9.894;2023-04-10T01:55:25;48.60;;;23.98;;
25946;SDS011;13745;51.470;9.894;2023-04-10T01:58:16;48.85;;;23.65;;
25946;SDS011;13745;51.470;9.894;2023-04-10T02:01:02;42.63;;;21.38;;
25946;SDS011;13745;51.470;9.894;2023-04-10T02:03:49;45.67;;;20.90;;
25946;SDS011;13745;51.470;9.894;2023-04-10T02:06:36;38.20;;;19.67;;
25946;SDS011;13745;51.470;9.894;2023-04-10T02:09:30;41.47;;;20.05;;
25946;SDS011;13745;51.470;9.894;2023-04-10T02:12:22;42.80;;;19.98;;
25946;SDS011;13745;51.470;9.894;2023-04-10T02:15:13;37.35;;;18.70;;
25946;SDS011;13745;51.470;9.894;2023-04-10T02:18:02;37.65;;;18.55;;
25946;SDS011;13745;51.470;9.894;2023-04-10T02:20:50;38.30;;;19.02;;
25946;SDS011;13745;51.470;9.894;2023-04-10T02:23:36;39.00;;;18.92;;
25946;SDS011;13745;51.470;9.894;2023-04-10T02:26:22;37.20;;;18.23;;
25946;SDS011;13745;51.470;9.894;2023-04-10T02:29:07;34.00;;;18.45;;
25946;SDS011;13745;51.470;9.894;2023-04-10T02:31:52;35.35;;;19.30;;
25946;SDS011;13745;51.470;9.894;2023-04-10T02:34:37;40.22;;;19.60;;
25946;SDS011;13745;51.470;9.894;2023-04-10T02:37:24;33.88;;;17.75;;
25946;SDS011;13745;51.470;9.894;2023-04-10T02:40:09;39.65;;;18.70;;
25946;SDS011;13745;51.470;9.894;2023-04-10T02:43:04;34.42;;;18.83;;
25946;SDS011;13745;51.470;9.894;2023-04-10T02:45:49;42.13;;;20.42;;
25946;SDS011;13745;51.470;9.894;2023-04-10T02:48:43;38.05;;;18.60;;
25946;SDS011;13745;51.470;9.894;2023-04-10T02:51:33;34.40;;;19.35;;
25946;SDS011;13745;51.470;9.894;2023-04-10T02:54:20;36.13;;;19.92;;
25946;SDS011;13745;51.470;9.894;2023-04-10T02:57:06;39.53;;;19.73;;
25946;SDS011;13745;51.470;9.894;2023-04-10T02:59:51;40.25;;;19.23;;
25946;SDS011;13745;51.470;9.894;2023-04-10T03:02:38;38.63;;;20.27;;
25946;SDS011;13745;51.470;9.894;2023-04-10T03:05:31;38.20;;;20.67;;
25946;SDS011;13745;51.470;9.894;2023-04-10T03:08:17;36.05;;;19.10;;
25946;SDS011;13745;51.470;9.894;2023-04-10T03:11:04;36.35;;;19.63;;
25946;SDS011;13745;51.470;9.894;2023-04-10T03:13:51;33.13;;;17.25;;
25946;SDS011;13745;51.470;9.894;2023-04-10T03:16:36;38.47;;;19.05;;
25946;SDS011;13745;51.470;9.894;2023-04-10T03:19:21;37.00;;;19.25;;
25946;SDS011;13745;51.470;9.894;2023-04-10T03:22:08;43.35;;;21.42;;
25946;SDS011;13745;51.470;9.894;2023-04-10T03:24:53;43.00;;;20.27;;
25946;SDS011;13745;51.470;9.894;2023-04-10T03:27:40;41.30;;;20.45;;
25946;SDS011;13745;51.470;9.894;2023-04-10T03:30:26;50.53;;;25.15;;
25946;SDS011;13745;51.470;9.894;2023-04-10T03:33:11;44.15;;;22.67;;
25946;SDS011;13745;51.470;9.894;2023-04-10T03:35:56;41.15;;;21.55;;
25946;SDS011;13745;51.470;9.894;2023-04-10T03:38:41;40.83;;;21.23;;
25946;SDS011;13745;51.470;9.894;2023-04-10T03:41:26;39.13;;;20.70;;
25946;SDS011;13745;51.470;9.894;2023-04-10T03:44:13;43.25;;;22.70;;
25946;SDS011;13745;51.470;9.894;2023-04-10T03:46:58;43.20;;;20.38;;
25946;SDS011;13745;51.470;9.894;2023-04-10T03:49:43;39.42;;;20.55;;
25946;SDS011;13745;51.470;9.894;2023-04-10T03:52:28;37.95;;;20.75;;
25946;SDS011;13745;51.470;9.894;2023-04-10T03:55:14;39.08;;;20.25;;
25946;SDS011;13745;51.470;9.894;2023-04-10T03:58:02;41.00;;;20.83;;
25946;SDS011;13745;51.470;9.894;2023-04-10T04:00:49;42.30;;;21.85;;
25946;SDS011;13745;51.470;9.894;2023-04-10T04:03:42;37.80;;;20.00;;
25946;SDS011;13745;51.470;9.894;2023-04-10T04:07:03;38.88;;;20.65;;
25946;SDS011;13745;51.470;9.894;2023-04-10T04:10:13;42.00;;;20.45;;
25946;SDS011;13745;51.470;9.894;2023-04-10T04:13:19;41.17;;;21.30;;
25946;SDS011;13745;51.470;9.894;2023-04-10T04:16:26;37.70;;;20.15;;
25946;SDS011;13745;51.470;9.894;2023-04-10T04:19:26;41.15;;;20.85;;
25946;SDS011;13745;51.470;9.894;2023-04-10T04:22:27;37.08;;;19.65;;
25946;SDS011;13745;51.470;9.894;2023-04-10T04:25:31;37.60;;;20.52;;
25946;SDS011;13745;51.470;9.894;2023-04-10T04:28:23;38.97;;;20.25;;
25946;SDS011;13745;51.470;9.894;2023-04-10T04:31:27;38.53;;;21.13;;
25946;SDS011;13745;51.470;9.894;2023-04-10T04:34:34;41.13;;;20.52;;
25946;SDS011;13745;51.470;9.894;2023-04-10T04:37:41;41.70;;;20.85;;
25946;SDS011;13745;51.470;9.894;2023-04-10T04:40:55;42.67;;;20.67;;
25946;SDS011;13745;51.470;9.894;2023-04-10T04:44:09;38.83;;;20.05;;
25946;SDS011;13745;51.470;9.894;2023-04-10T04:47:17;34.88;;;19.27;;
25946;SDS011;13745;51.470;9.894;2023-04-10T04:50:21;43.92;;;20.33;;
25946;SDS011;13745;51.470;9.894;2023-04-10T04:53:31;37.42;;;20.33;;
25946;SDS011;13745;51.470;9.894;2023-04-10T04:56:25;43.30;;;22.45;;
25946;SDS011;13745;51.470;9.894;2023-04-10T04:59:45;45.53;;;22.13;;
25946;SDS011;13745;51.470;9.894;2023-04-10T05:05:50;39.33;;;21.27;;
25946;SDS011;13745;51.470;9.894;2023-04-10T05:08:54;41.83;;;22.02;;
25946;SDS011;13745;51.470;9.894;2023-04-10T05:11:47;47.50;;;22.75;;
25946;SDS011;13745;51.470;9.894;2023-04-10T05:14:53;37.60;;;20.40;;
25946;SDS011;13745;51.470;9.894;2023-04-10T05:17:50;36.88;;;19.15;;
25946;SDS011;13745;51.470;9.894;2023-04-10T05:20:56;43.28;;;20.25;;
25946;SDS011;13745;51.470;9.894;2023-04-10T05:24:05;47.08;;;23.65;;
25946;SDS011;13745;51.470;9.894;2023-04-10T05:26:57;46.10;;;23.42;;
25946;SDS011;13745;51.470;9.894;2023-04-10T05:29:49;52.78;;;23.92;;
25946;SDS011;13745;51.470;9.894;2023-04-10T05:35:40;49.22;;;22.10;;
25946;SDS011;13745;51.470;9.894;2023-04-10T05:38:37;40.63;;;21.15;;
25946;SDS011;13745;51.470;9.894;2023-04-10T05:41:33;43.10;;;21.08;;
25946;SDS011;13745;51.470;9.894;2023-04-10T05:44:38;40.30;;;21.77;;
25946;SDS011;13745;51.470;9.894;2023-04-10T05:47:41;41.53;;;21.70;;
25946;SDS011;13745;51.470;9.894;2023-04-10T05:50:42;45.00;;;20.55;;
25946;SDS011;13745;51.470;9.894;2023-04-10T05:53:49;37.53;;;19.88;;
25946;SDS011;13745;51.470;9.894;2023-04-10T05:56:57;39.05;;;20.48;;
25946;SDS011;13745;51.470;9.894;2023-04-10T06:00:01;40.60;;;21.27;;
25946;SDS011;13745;51.470;9.894;2023-04-10T06:02:58;38.58;;;21.10;;
25946;SDS011;13745;51.470;9.894;2023-04-10T06:05:46;39.67;;;22.05;;
25946;SDS011;13745;51.470;9.894;2023-04-10T06:08:31;41.65;;;22.13;;
25946;SDS011;13745;51.470;9.894;2023-04-10T06:11:18;35.83;;;19.90;;
25946;SDS011;13745;51.470;9.894;2023-04-10T06:14:08;42.20;;;20.65;;
25946;SDS011;13745;51.470;9.894;2023-04-10T06:16:58;38.58;;;19.98;;
25946;SDS011;13745;51.470;9.894;2023-04-10T06:19:43;39.65;;;21.08;;
25946;SDS011;13745;51.470;9.894;2023-04-10T06:22:28;42.17;;;21.10;;
25946;SDS011;13745;51.470;9.894;2023-04-10T06:25:13;34.78;;;19.52;;
25946;SDS011;13745;51.470;9.894;2023-04-10T06:28:00;50.70;;;25.95;;
25946;SDS011;13745;51.470;9.894;2023-04-10T06:30:45;48.05;;;24.85;;
25946;SDS011;13745;51.470;9.894;2023-04-10T06:33:30;38.63;;;19.55;;
25946;SDS011;13745;51.470;9.894;2023-04-10T06:36:19;45.28;;;23.20;;
25946;SDS011;13745;51.470;9.894;2023-04-10T06:39:11;34.50;;;19.52;;
25946;SDS011;13745;51.470;9.894;2023-04-10T06:41:56;35.55;;;21.05;;
25946;SDS011;13745;51.470;9.894;2023-04-10T06:45:12;39.42;;;21.23;;
25946;SDS011;13745;51.470;9.894;2023-04-10T06:47:57;36.03;;;20.88;;
25946;SDS011;13745;51.470;9.894;2023-04-10T06:50:42;32.63;;;18.90;;
25946;SDS011;13745;51.470;9.894;2023-04-10T06:53:28;31.58;;;18.48;;
25946;SDS011;13745;51.470;9.894;2023-04-10T06:56:13;28.85;;;16.50;;
25946;SDS011;13745;51.470;9.894;2023-04-10T06:58:59;28.08;;;15.00;;
25946;SDS011;13745;51.470;9.894;2023-04-10T07:01:45;26.08;;;15.20;;
25946;SDS011;13745;51.470;9.894;2023-04-10T07:04:31;26.48;;;14.77;;
25946;SDS011;13745;51.470;9.894;2023-04-10T07:07:16;25.98;;;14.43;;
25946;SDS011;13745;51.470;9.894;2023-04-10T07:10:02;24.92;;;13.77;;
25946;SDS011;13745;51.470;9.894;2023-04-10T07:12:47;22.42;;;14.60;;
25946;SDS011;13745;51.470;9.894;2023-04-10T07:15:32;23.08;;;14.43;;
25946;SDS011;13745;51.470;9.894;2023-04-10T07:18:18;19.35;;;13.80;;
25946;SDS011;13745;51.470;9.894;2023-04-10T07:21:08;20.73;;;13.18;;
25946;SDS011;13745;51.470;9.894;2023-04-10T07:23:54;19.42;;;12.80;;
25946;SDS011;13745;51.470;9.894;2023-04-10T07:26:39;18.25;;;12.23;;
25946;SDS011;13745;51.470;9.894;2023-04-10T07:29:24;21.55;;;13.25;;
25946;SDS011;13745;51.470;9.894;2023-04-10T07:32:09;20.58;;;13.40;;
25946;SDS011;13745;51.470;9.894;2023-04-10T07:34:56;19.52;;;13.80;;
25946;SDS011;13745;51.470;9.894;2023-04-10T07:37:41;22.30;;;13.95;;
25946;SDS011;13745;51.470;9.894;2023-04-10T07:40:26;20.15;;;12.95;;
25946;SDS011;13745;51.470;9.894;2023-04-10T07:43:11;22.63;;;13.88;;
25946;SDS011;13745;51.470;9.894;2023-04-10T07:45:56;22.02;;;12.95;;
25946;SDS011;13745;51.470;9.894;2023-04-10T07:48:41;20.15;;;13.07;;
25946;SDS011;13745;51.470;9.894;2023-04-10T07:51:28;21.65;;;13.32;;
25946;SDS011;13745;51.470;9.894;2023-04-10T07:54:14;17.10;;;11.88;;
25946;SDS011;13745;51.470;9.894;2023-04-10T07:56:59;16.55;;;11.63;;
25946;SDS011;13745;51.470;9.894;2023-04-10T07:59:44;16.45;;;11.73;;
25946;SDS011;13745;51.470;9.894;2023-04-10T08:02:29;16.35;;;12.02;;
25946;SDS011;13745;51.470;9.894;2023-04-10T08:05:14;17.05;;;11.43;;
25946;SDS011;13745;51.470;9.894;2023-04-10T08:08:00;14.18;;;10.65;;
25946;SDS011;13745;51.470;9.894;2023-04-10T08:10:45;17.67;;;11.40;;
25946;SDS011;13745;51.470;9.894;2023-04-10T08:13:31;14.05;;;10.75;;
25946;SDS011;13745;51.470;9.894;2023-04-10T08:16:17;14.55;;;9.82;;
25946;SDS011;13745;51.470;9.894;2023-04-10T08:19:02;14.85;;;10.63;;
25946;SDS011;13745;51.470;9.894;2023-04-10T08:21:47;13.68;;;10.48;;
25946;SDS011;13745;51.470;9.894;2023-04-10T08:24:34;14.35;;;10.20;;
25946;SDS011;13745;51.470;9.894;2023-04-10T08:27:19;13.35;;;9.98;;
25946;SDS011;13745;51.470;9.894;2023-04-10T08:30:04;14.40;;;9.63;;
25946;SDS011;13745;51.470;9.894;2023-04-10T08:32:50;14.63;;;10.48;;
25946;SDS011;13745;51.470;9.894;2023-04-10T08:35:35;17.65;;;10.25;;
25946;SDS011;13745;51.470;9.894;2023-04-10T08:38:20;15.10;;;10.88;;
25946;SDS011;13745;51.470;9.894;2023-04-10T08:41:10;13.23;;;9.70;;
25946;SDS011;13745;51.470;9.894;2023-04-10T08:43:55;12.95;;;9.68;;
25946;SDS011;13745;51.470;9.894;2023-04-10T08:46:42;14.40;;;11.05;;
25946;SDS011;13745;51.470;9.894;2023-04-10T08:49:28;13.77;;;10.07;;
25946;SDS011;13745;51.470;9.894;2023-04-10T08:52:22;13.20;;;10.00;;
25946;SDS011;13745;51.470;9.894;2023-04-10T08:55:08;14.02;;;10.98;;
25946;SDS011;13745;51.470;9.894;2023-04-10T08:57:58;14.77;;;11.70;;
25946;SDS011;13745;51.470;9.894;2023-04-10T09:00:44;13.13;;;10.23;;
25946;SDS011;13745;51.470;9.894;2023-04-10T09:03:29;13.00;;;10.63;;
25946;SDS011;13745;51.470;9.894;2023-04-10T09:06:15;14.52;;;11.00;;
25946;SDS011;13745;51.470;9.894;2023-04-10T09:09:00;14.15;;;10.70;;
25946;SDS011;13745;51.470;9.894;2023-04-10T09:14:50;14.18;;;10.80;;
25946;SDS011;13745;51.470;9.894;2023-04-10T09:17:36;14.40;;;10.93;;
25946;SDS011;13745;51.470;9.894;2023-04-10T09:20:21;12.88;;;10.75;;
25946;SDS011;13745;51.470;9.894;2023-04-10T09:23:18;13.90;;;10.77;;
25946;SDS011;13745;51.470;9.894;2023-04-10T09:26:23;14.00;;;10.85;;
25946;SDS011;13745;51.470;9.894;2023-04-10T09:29:09;12.60;;;10.77;;
25946;SDS011;13745;51.470;9.894;2023-04-10T09:31:56;19.10;;;11.40;;
25946;SDS011;13745;51.470;9.894;2023-04-10T09:34:51;13.07;;;10.82;;
25946;SDS011;13745;51.470;9.894;2023-04-10T09:37:37;10.82;;;9.60;;
25946;SDS011;13745;51.470;9.894;2023-04-10T09:40:24;9.85;;;8.85;;
25946;SDS011;13745;51.470;9.894;2023-04-10T09:43:19;10.32;;;9.18;;
25946;SDS011;13745;51.470;9.894;2023-04-10T09:46:07;10.23;;;9.32;;
25946;SDS011;13745;51.470;9.894;2023-04-10T09:48:54;9.68;;;8.73;;
25946;SDS011;13745;51.470;9.894;2023-04-10T09:51:39;10.07;;;9.18;;
25946;SDS011;13745;51.470;9.894;2023-04-10T09:54:34;9.02;;;8.20;;
25946;SDS011;13745;51.470;9.894;2023-04-10T09:57:21;8.95;;;8.13;;
25946;SDS011;13745;51.470;9.894;2023-04-10T10:00:07;8.60;;;7.90;;
25946;SDS011;13745;51.470;9.894;2023-04-10T10:02:55;10.88;;;8.60;;
25946;SDS011;13745;51.470;9.894;2023-04-10T10:05:44;9.25;;;8.38;;
25946;SDS011;13745;51.470;9.894;2023-04-10T10:08:31;8.52;;;7.45;;
25946;SDS011;13745;51.470;9.894;2023-04-10T10:11:20;9.02;;;8.13;;
25946;SDS011;13745;51.470;9.894;2023-04-10T10:14:08;8.77;;;7.97;;
25946;SDS011;13745;51.470;9.894;2023-04-10T10:16:58;8.82;;;8.02;;
25946;SDS011;13745;51.470;9.894;2023-04-10T10:19:50;8.07;;;7.37;;
25946;SDS011;13745;51.470;9.894;2023-04-10T10:22:42;9.18;;;8.38;;
25946;SDS011;13745;51.470;9.894;2023-04-10T10:25:27;8.75;;;7.95;;
25946;SDS011;13745;51.470;9.894;2023-04-10T10:28:14;8.77;;;7.97;;
25946;SDS011;13745;51.470;9.894;2023-04-10T10:31:01;8.88;;;8.07;;
25946;SDS011;13745;51.470;9.894;2023-04-10T10:33:47;7.97;;;7.38;;
25946;SDS011;13745;51.470;9.894;2023-04-10T10:36:35;7.13;;;6.60;;
25946;SDS011;13745;51.470;9.894;2023-04-10T10:39:23;8.02;;;7.32;;
25946;SDS011;13745;51.470;9.894;2023-04-10T10:42:17;8.05;;;7.43;;
25946;SDS011;13745;51.470;9.894;2023-04-10T10:45:11;7.35;;;6.75;;
25946;SDS011;13745;51.470;9.894;2023-04-10T10:47:59;7.20;;;6.60;;
25946;SDS011;13745;51.470;9.894;2023-04-10T10:50:51;7.78;;;7.05;;
25946;SDS011;13745;51.470;9.894;2023-04-10T10:53:42;7.45;;;6.85;;
25946;SDS011;13745;51.470;9.894;2023-04-10T10:56:36;7.32;;;6.72;;
25946;SDS011;13745;51.470;9.894;2023-04-10T11:02:39;7.55;;;6.85;;
25946;SDS011;13745;51.470;9.894;2023-04-10T11:08:36;7.30;;;6.70;;
25946;SDS011;13745;51.470;9.894;2023-04-10T11:11:28;7.15;;;6.50;;
25946;SDS011;13745;51.470;9.894;2023-04-10T11:14:14;6.75;;;6.15;;
25946;SDS011;13745;51.470;9.894;2023-04-10T11:17:00;6.57;;;5.97;;
25946;SDS011;13745;51.470;9.894;2023-04-10T11:19:58;7.07;;;6.47;;
25946;SDS011;13745;51.470;9.894;2023-04-10T11:25:53;8.68;;;5.93;;
25946;SDS011;13745;51.470;9.894;2023-04-10T11:28:38;7.80;;;6.63;;
25946;SDS011;13745;51.470;9.894;2023-04-10T11:31:24;7.05;;;6.40;;
25946;SDS011;13745;51.470;9.894;2023-04-10T11:34:10;7.75;;;7.05;;
25946;SDS011;13745;51.470;9.894;2023-04-10T11:36:58;7.05;;;6.43;;
25946;SDS011;13745;51.470;9.894;2023-04-10T11:39:45;6.63;;;6.03;;
25946;SDS011;13745;51.470;9.894;2023-04-10T11:42:30;7.00;;;6.38;;
25946;SDS011;13745;51.470;9.894;2023-04-10T11:45:22;6.22;;;5.63;;
25946;SDS011;13745;51.470;9.894;2023-04-10T11:48:12;5.57;;;5.07;;
25946;SDS011;13745;51.470;9.894;2023-04-10T11:50:58;5.80;;;5.30;;
25946;SDS011;13745;51.470;9.894;2023-04-10T11:54:02;6.10;;;5.50;;
25946;SDS011;13745;51.470;9.894;2023-04-10T11:56:55;5.80;;;5.28;;
25946;SDS011;13745;51.470;9.894;2023-04-10T11:59:48;5.03;;;4.53;;
25946;SDS011;13745;51.470;9.894;2023-04-10T12:02:34;5.50;;;5.00;;
25946;SDS011;13745;51.470;9.894;2023-04-10T12:05:20;4.85;;;4.40;;
25946;SDS011;13745;51.470;9.894;2023-04-10T12:08:05;5.95;;;5.00;;
25946;SDS011;13745;51.470;9.894;2023-04-10T12:10:50;5.55;;;4.97;;
25946;SDS011;13745;51.470;9.894;2023-04-10T12:13:36;5.60;;;4.85;;
25946;SDS011;13745;51.470;9.894;2023-04-10T12:16:23;5.32;;;4.38;;
25946;SDS011;13745;51.470;9.894;2023-04-10T12:19:09;5.15;;;4.65;;
25946;SDS011;13745;51.470;9.894;2023-04-10T12:21:57;4.90;;;4.40;;
25946;SDS011;13745;51.470;9.894;2023-04-10T12:24:44;5.47;;;4.22;;
25946;SDS011;13745;51.470;9.894;2023-04-10T12:27:30;7.82;;;4.25;;
25946;SDS011;13745;51.470;9.894;2023-04-10T12:30:15;4.32;;;3.92;;
25946;SDS011;13745;51.470;9.894;2023-04-10T12:33:00;4.40;;;4.00;;
25946;SDS011;13745;51.470;9.894;2023-04-10T12:35:48;4.85;;;3.58;;
25946;SDS011;13745;51.470;9.894;2023-04-10T12:38:37;4.32;;;3.78;;
25946;SDS011;13745;51.470;9.894;2023-04-10T12:41:23;4.55;;;4.15;;
25946;SDS011;13745;51.470;9.894;2023-04-10T12:44:10;4.05;;;3.65;;
25946;SDS011;13745;51.470;9.894;2023-04-10T12:46:58;3.90;;;3.45;;
25946;SDS011;13745;51.470;9.894;2023-04-10T12:53:00;5.47;;;3.92;;
25946;SDS011;13745;51.470;9.894;2023-04-10T12:55:58;3.80;;;3.38;;
25946;SDS011;13745;51.470;9.894;2023-04-10T12:58:45;3.42;;;3.13;;
25946;SDS011;13745;51.470;9.894;2023-04-10T13:01:30;4.15;;;3.40;;
25946;SDS011;13745;51.470;9.894;2023-04-10T13:04:15;3.70;;;3.40;;
25946;SDS011;13745;51.470;9.894;2023-04-10T13:07:01;3.58;;;3.28;;
25946;SDS011;13745;51.470;9.894;2023-04-10T13:09:46;4.43;;;3.35;;
25946;SDS011;13745;51.470;9.894;2023-04-10T13:12:32;4.05;;;3.45;;
25946;SDS011;13745;51.470;9.894;2023-04-10T13:15:19;4.50;;;3.83;;
25946;SDS011;13745;51.470;9.894;2023-04-10T13:18:04;4.55;;;3.70;;
25946;SDS011;13745;51.470;9.894;2023-04-10T13:20:50;4.30;;;3.30;;
25946;SDS011;13745;51.470;9.894;2023-04-10T13:23:35;3.83;;;3.45;;
25946;SDS011;13745;51.470;9.894;2023-04-10T13:26:20;4.05;;;3.65;;
25946;SDS011;13745;51.470;9.894;2023-04-10T13:29:06;4.63;;;3.60;;
25946;SDS011;13745;51.470;9.894;2023-04-10T13:31:51;4.40;;;4.00;;
25946;SDS011;13745;51.470;9.894;2023-04-10T13:34:36;4.20;;;3.80;;
25946;SDS011;13745;51.470;9.894;2023-04-10T13:37:21;4.05;;;3.42;;
25946;SDS011;13745;51.470;9.894;2023-04-10T13:40:07;7.32;;;3.85;;
25946;SDS011;13745;51.470;9.894;2023-04-10T13:42:53;6.05;;;3.53;;
25946;SDS011;13745;51.470;9.894;2023-04-10T13:45:39;3.67;;;3.35;;
25946;SDS011;13745;51.470;9.894;2023-04-10T13:48:24;3.75;;;3.45;;
25946;SDS011;13745;51.470;9.894;2023-04-10T13:51:10;4.47;;;3.88;;
25946;SDS011;13745;51.470;9.894;2023-04-10T13:53:55;5.47;;;4.05;;
25946;SDS011;13745;51.470;9.894;2023-04-10T13:56:41;5.55;;;3.45;;
25946;SDS011;13745;51.470;9.894;2023-04-10T13:59:27;3.92;;;3.53;;
25946;SDS011;13745;51.470;9.894;2023-04-10T14:02:13;3.97;;;3.60;;
25946;SDS011;13745;51.470;9.894;2023-04-10T14:04:58;4.60;;;3.65;;
25946;SDS011;13745;51.470;9.894;2023-04-10T14:07:43;3.95;;;3.40;;
25946;SDS011;13745;51.470;9.894;2023-04-10T14:10:28;4.55;;;3.20;;
25946;SDS011;13745;51.470;9.894;2023-04-10T14:13:13;3.80;;;3.30;;
25946;SDS011;13745;51.470;9.894;2023-04-10T14:15:59;3.72;;;3.42;;
25946;SDS011;13745;51.470;9.894;2023-04-10T14:18:47;4.00;;;3.60;;
25946;SDS011;13745;51.470;9.894;2023-04-10T14:21:33;3.53;;;3.20;;
25946;SDS011;13745;51.470;9.894;2023-04-10T14:24:18;4.03;;;3.63;;
25946;SDS011;13745;51.470;9.894;2023-04-10T14:27:04;4.07;;;3.65;;
25946;SDS011;13745;51.470;9.894;2023-04-10T14:29:49;4.63;;;3.55;;
25946;SDS011;13745;51.470;9.894;2023-04-10T14:32:34;3.88;;;3.55;;
25946;SDS011;13745;51.470;9.894;2023-04-10T14:35:21;3.30;;;3.00;;
25946;SDS011;13745;51.470;9.894;2023-04-10T14:38:06;3.78;;;3.28;;
25946;SDS011;13745;51.470;9.894;2023-04-10T14:40:51;4.28;;;3.40;;
25946;SDS011;13745;51.470;9.894;2023-04-10T14:43:36;4.63;;;3.25;;
25946;SDS011;13745;51.470;9.894;2023-04-10T14:46:21;3.65;;;3.25;;
25946;SDS011;13745;51.470;9.894;2023-04-10T14:49:08;3.45;;;3.15;;
25946;SDS011;13745;51.470;9.894;2023-04-10T14:51:55;3.42;;;3.13;;
25946;SDS011;13745;51.470;9.894;2023-04-10T14:54:40;3.80;;;3.33;;
25946;SDS011;13745;51.470;9.894;2023-04-10T14:57:25;3.72;;;3.42;;
25946;SDS011;13745;51.470;9.894;2023-04-10T15:00:12;3.75;;;3.03;;
25946;SDS011;13745;51.470;9.894;2023-04-10T15:02:57;3.60;;;3.08;;
25946;SDS011;13745;51.470;9.894;2023-04-10T15:05:42;3.40;;;3.10;;
25946;SDS011;13745;51.470;9.894;2023-04-10T15:08:29;3.40;;;3.10;;
25946;SDS011;13745;51.470;9.894;2023-04-10T15:11:14;3.47;;;3.10;;
25946;SDS011;13745;51.470;9.894;2023-04-10T15:13:59;4.57;;;2.90;;
25946;SDS011;13745;51.470;9.894;2023-04-10T15:16:45;3.78;;;3.35;;
25946;SDS011;13745;51.470;9.894;2023-04-10T15:19:30;3.55;;;3.25;;
25946;SDS011;13745;51.470;9.894;2023-04-10T15:22:15;4.30;;;3.42;;
25946;SDS011;13745;51.470;9.894;2023-04-10T15:25:02;3.80;;;2.92;;
25946;SDS011;13745;51.470;9.894;2023-04-10T15:27:47;6.28;;;5.32;;
25946;SDS011;13745;51.470;9.894;2023-04-10T15:30:32;5.80;;;5.20;;
25946;SDS011;13745;51.470;9.894;2023-04-10T15:33:17;14.57;;;11.07;;
25946;SDS011;13745;51.470;9.894;2023-04-10T15:36:04;7.70;;;5.45;;
25946;SDS011;13745;51.470;9.894;2023-04-10T15:38:51;6.07;;;4.85;;
25946;SDS011;13745;51.470;9.894;2023-04-10T15:41:37;5.25;;;4.07;;
25946;SDS011;13745;51.470;9.894;2023-04-10T15:44:22;3.55;;;3.25;;
25946;SDS011;13745;51.470;9.894;2023-04-10T15:47:08;4.30;;;3.90;;
25946;SDS011;13745;51.470;9.894;2023-04-10T15:49:54;3.47;;;3.17;;
25946;SDS011;13745;51.470;9.894;2023-04-10T15:52:40;4.43;;;3.25;;
25946;SDS011;13745;51.470;9.894;2023-04-10T15:55:25;5.70;;;3.38;;
25946;SDS011;13745;51.470;9.894;2023-04-10T15:58:11;5.22;;;4.72;;
25946;SDS011;13745;51.470;9.894;2023-04-10T16:00:56;5.05;;;4.18;;
25946;SDS011;13745;51.470;9.894;2023-04-10T16:03:42;3.75;;;3.40;;
25946;SDS011;13745;51.470;9.894;2023-04-10T16:06:28;5.13;;;3.38;;
25946;SDS011;13745;51.470;9.894;2023-04-10T16:09:13;4.22;;;3.50;;
25946;SDS011;13745;51.470;9.894;2023-04-10T16:11:58;4.40;;;3.65;;
25946;SDS011;13745;51.470;9.894;2023-04-10T16:14:46;4.65;;;3.90;;
25946;SDS011;13745;51.470;9.894;2023-04-10T16:17:31;4.40;;;3.67;;
25946;SDS011;13745;51.470;9.894;2023-04-10T16:20:16;3.33;;;3.03;;
25946;SDS011;13745;51.470;9.894;2023-04-10T16:23:01;3.70;;;3.28;;
25946;SDS011;13745;51.470;9.894;2023-04-10T16:25:46;5.28;;;4.45;;
25946;SDS011;13745;51.470;9.894;2023-04-10T16:28:31;3.83;;;3.38;;
25946;SDS011;13745;51.470;9.894;2023-04-10T16:31:17;3.97;;;2.53;;
25946;SDS011;13745;51.470;9.894;2023-04-10T16:34:02;3.20;;;2.63;;
25946;SDS011;13745;51.470;9.894;2023-04-10T16:36:47;2.75;;;2.53;;
25946;SDS011;13745;51.470;9.894;2023-04-10T16:39:32;3.10;;;2.80;;
25946;SDS011;13745;51.470;9.894;2023-04-10T16:42:17;2.33;;;2.13;;
25946;SDS011;13745;51.470;9.894;2023-04-10T16:45:02;3.22;;;2.40;;
25946;SDS011;13745;51.470;9.894;2023-04-10T16:47:49;2.42;;;2.22;;
25946;SDS011;13745;51.470;9.894;2023-04-10T16:50:34;4.10;;;3.70;;
25946;SDS011;13745;51.470;9.894;2023-04-10T16:53:20;2.60;;;2.22;;
25946;SDS011;13745;51.470;9.894;2023-04-10T16:56:05;3.80;;;2.70;;
25946;SDS011;13745;51.470;9.894;2023-04-10T16:58:50;9.05;;;2.75;;
25946;SDS011;13745;51.470;9.894;2023-04-10T17:01:35;3.83;;;2.65;;